Time;durP1;ratioP1;P1;durP2;ratioP2;P2;SDS_P1;SDS_P2;PMS_P1;PMS_P2;Temp;Humidity;BMP_temperature;BMP_pressure;BME280_temperature;BME280_humidity;BME280_pressure;Samples;Min_cycle;Max_cycle;Signal;HPM_P1;HPM_P2
2021/10/12 00:02:23;;;;;;;16.38;15.98;;;;;;;;;;4991010;28;20067;-56
2021/10/12 00:04:50;;;;;;;14.52;14.18;;;;;;;;;;4983865;28;20044;-56
2021/10/12 00:07:17;;;;;;;17.27;16.70;;;;;;;;;;4989723;28;20038;-56
2021/10/12 00:09:43;;;;;;;16.77;16.25;;;;;;;;;;4987918;28;20483;-55
2021/10/12 00:12:10;;;;;;;16.35;16.08;;;;;;;;;;4988676;28;20073;-56
2021/10/12 00:14:37;;;;;;;17.08;16.48;;;;;;;;;;4989158;28;20034;-56
2021/10/12 00:17:04;;;;;;;16.50;16.20;;;;;;;;;;4988871;28;20380;-56
2021/10/12 00:19:31;;;;;;;16.50;16.00;;;;;;;;;;4989780;28;20035;-55
2021/10/12 00:21:58;;;;;;;16.88;16.58;;;;;;;;;;4987845;28;20042;-55
2021/10/12 00:24:25;;;;;;;17.08;16.25;;;;;;;;;;4988840;28;20066;-56
2021/10/12 00:26:51;;;;;;;14.13;13.93;;;;;;;;;;4989806;28;20050;-55
2021/10/12 00:29:18;;;;;;;14.82;14.63;;;;;;;;;;4987759;28;20042;-55
2021/10/12 00:31:45;;;;;;;15.55;15.23;;;;;;;;;;4988226;28;20108;-56
2021/10/12 00:34:12;;;;;;;16.33;15.95;;;;;;;;;;4983202;28;20133;-55
2021/10/12 00:36:38;;;;;;;18.52;18.13;;;;;;;;;;4978131;28;20538;-56
2021/10/12 00:39:05;;;;;;;17.70;17.35;;;;;;;;;;4989334;28;20418;-56
2021/10/12 00:41:32;;;;;;;18.02;17.58;;;;;;;;;;4988888;28;20133;-56
2021/10/12 00:43:59;;;;;;;18.23;17.75;;;;;;;;;;4989448;28;20038;-56
2021/10/12 00:46:26;;;;;;;17.45;17.15;;;;;;;;;;4988734;28;20105;-56
2021/10/12 00:48:55;;;;;;;18.23;17.83;;;;;;;;;;4978756;28;20049;-55
2021/10/12 00:51:22;;;;;;;16.38;15.82;;;;;;;;;;4985976;28;20042;-55
2021/10/12 00:53:49;;;;;;;16.55;16.13;;;;;;;;;;4987211;28;20045;-56
2021/10/12 00:56:16;;;;;;;17.23;16.83;;;;;;;;;;4990942;28;20085;-56
2021/10/12 00:58:43;;;;;;;18.63;18.30;;;;;;;;;;4982754;28;20652;-56
2021/10/12 01:01:13;;;;;;;17.40;17.10;;;;;;;;;;4983920;28;20045;-56
2021/10/12 01:03:40;;;;;;;18.60;17.92;;;;;;;;;;4988553;28;20363;-56
2021/10/12 01:06:07;;;;;;;16.83;16.38;;;;;;;;;;4989188;28;20543;-56
2021/10/12 01:08:34;;;;;;;16.92;16.65;;;;;;;;;;4987843;28;20121;-55
2021/10/12 01:11:01;;;;;;;18.50;18.10;;;;;;;;;;4989775;28;20508;-56
2021/10/12 01:13:28;;;;;;;18.08;17.77;;;;;;;;;;4985484;28;20519;-56
2021/10/12 01:15:55;;;;;;;16.42;16.23;;;;;;;;;;4983844;28;20483;-56
2021/10/12 01:18:21;;;;;;;16.08;15.63;;;;;;;;;;4989407;28;20104;-55
2021/10/12 01:20:52;;;;;;;16.25;16.00;;;;;;;;;;4988352;28;20129;-55
2021/10/12 01:23:19;;;;;;;16.17;15.82;;;;;;;;;;4988333;28;20035;-56
2021/10/12 01:25:45;;;;;;;16.50;16.30;;;;;;;;;;4988431;28;20561;-56
2021/10/12 01:28:12;;;;;;;17.70;17.50;;;;;;;;;;4983324;28;20117;-56
2021/10/12 01:30:39;;;;;;;15.65;15.35;;;;;;;;;;4989370;28;20038;-56
2021/10/12 01:33:06;;;;;;;17.42;16.70;;;;;;;;;;4985085;28;20074;-56
2021/10/12 01:35:34;;;;;;;16.45;16.13;;;;;;;;;;4975090;28;20030;-56
2021/10/12 01:38:00;;;;;;;17.50;17.20;;;;;;;;;;4987894;28;20089;-56
2021/10/12 01:40:27;;;;;;;16.08;15.77;;;;;;;;;;4986326;28;20118;-56
2021/10/12 01:42:58;;;;;;;16.27;16.05;;;;;;;;;;4989340;28;20669;-56
2021/10/12 01:45:25;;;;;;;16.23;16.00;;;;;;;;;;4986646;28;20070;-56
2021/10/12 01:47:52;;;;;;;15.63;15.25;;;;;;;;;;4988685;28;20046;-55
2021/10/12 01:50:19;;;;;;;17.95;17.52;;;;;;;;;;4989034;28;20413;-56
2021/10/12 01:52:47;;;;;;;17.10;16.80;;;;;;;;;;4983480;28;20042;-57
2021/10/12 01:55:14;;;;;;;16.27;16.08;;;;;;;;;;4989357;28;20046;-56
2021/10/12 01:57:41;;;;;;;16.73;16.42;;;;;;;;;;4988357;28;20096;-57
2021/10/12 02:00:08;;;;;;;17.75;17.45;;;;;;;;;;4989232;28;20073;-55
2021/10/12 02:02:34;;;;;;;15.70;15.55;;;;;;;;;;4989634;28;20448;-52
2021/10/12 02:05:02;;;;;;;17.05;16.38;;;;;;;;;;4989162;28;20042;-53
2021/10/12 02:07:28;;;;;;;14.43;14.15;;;;;;;;;;4993320;28;20097;-54
2021/10/12 02:09:55;;;;;;;15.20;14.90;;;;;;;;;;4991426;28;20065;-56
2021/10/12 02:12:22;;;;;;;15.88;15.48;;;;;;;;;;4988978;28;20125;-56
2021/10/12 02:14:49;;;;;;;14.63;14.32;;;;;;;;;;4991202;28;20125;-55
2021/10/12 02:17:15;;;;;;;17.33;16.75;;;;;;;;;;4990532;28;20438;-55
2021/10/12 02:19:42;;;;;;;16.58;16.17;;;;;;;;;;4992072;28;20127;-55
2021/10/12 02:22:09;;;;;;;16.92;16.35;;;;;;;;;;4990179;28;20054;-56
2021/10/12 02:24:36;;;;;;;15.80;15.40;;;;;;;;;;4991957;28;20046;-56
2021/10/12 02:27:02;;;;;;;15.85;15.65;;;;;;;;;;4989601;28;20117;-55
2021/10/12 02:29:29;;;;;;;17.60;17.20;;;;;;;;;;4991756;28;20488;-55
2021/10/12 02:31:56;;;;;;;15.68;15.48;;;;;;;;;;4992041;28;20690;-56
2021/10/12 02:34:23;;;;;;;16.58;16.02;;;;;;;;;;4986534;28;20483;-55
2021/10/12 02:36:50;;;;;;;14.07;13.60;;;;;;;;;;4991780;28;20114;-55
2021/10/12 02:39:17;;;;;;;16.77;16.52;;;;;;;;;;4989255;28;20486;-56
2021/10/12 02:41:43;;;;;;;15.95;15.45;;;;;;;;;;4990476;28;20062;-56
2021/10/12 02:44:10;;;;;;;16.33;15.73;;;;;;;;;;4990812;28;20140;-55
2021/10/12 02:46:37;;;;;;;16.83;16.48;;;;;;;;;;4989559;28;20077;-56
2021/10/12 02:49:04;;;;;;;16.50;16.27;;;;;;;;;;4992475;28;20062;-56
2021/10/12 02:51:31;;;;;;;17.52;17.15;;;;;;;;;;4991962;28;20058;-56
2021/10/12 02:53:58;;;;;;;17.42;17.17;;;;;;;;;;4991890;28;20100;-56
2021/10/12 02:56:24;;;;;;;15.27;14.93;;;;;;;;;;4989752;28;20730;-56
2021/10/12 02:58:51;;;;;;;16.52;16.33;;;;;;;;;;4991169;28;20454;-55
2021/10/12 03:01:18;;;;;;;17.17;16.88;;;;;;;;;;4991193;28;20042;-56
2021/10/12 03:03:45;;;;;;;16.65;16.42;;;;;;;;;;4990736;28;20038;-55
2021/10/12 03:06:13;;;;;;;17.15;16.85;;;;;;;;;;4985492;28;20038;-56
2021/10/12 03:08:40;;;;;;;18.73;18.33;;;;;;;;;;4988875;28;20718;-55
2021/10/12 03:11:07;;;;;;;16.70;16.50;;;;;;;;;;4989513;28;20442;-55
2021/10/12 03:13:33;;;;;;;18.05;17.52;;;;;;;;;;4991227;28;20089;-56
2021/10/12 03:16:01;;;;;;;18.13;17.83;;;;;;;;;;4978390;28;20034;-56
2021/10/12 03:18:31;;;;;;;18.02;17.55;;;;;;;;;;4990712;28;20043;-56
2021/10/12 03:20:58;;;;;;;15.68;15.45;;;;;;;;;;4989262;28;20074;-56
2021/10/12 03:23:25;;;;;;;17.42;17.05;;;;;;;;;;4990773;28;20038;-56
2021/10/12 03:25:51;;;;;;;16.08;15.60;;;;;;;;;;4991672;28;20097;-56
2021/10/12 03:28:19;;;;;;;18.05;17.67;;;;;;;;;;4986256;28;20556;-56
2021/10/12 03:30:45;;;;;;;17.60;17.10;;;;;;;;;;4980501;28;20045;-55
2021/10/12 03:33:14;;;;;;;19.55;19.15;;;;;;;;;;4984005;28;20093;-56
2021/10/12 03:35:46;;;;;;;18.70;18.30;;;;;;;;;;4974683;28;20047;-56
2021/10/12 03:38:13;;;;;;;18.77;18.17;;;;;;;;;;4990510;28;20038;-55
2021/10/12 03:40:40;;;;;;;18.20;17.85;;;;;;;;;;4988389;28;20050;-56
2021/10/12 03:43:06;;;;;;;17.15;16.95;;;;;;;;;;4989904;28;20062;-56
2021/10/12 03:45:34;;;;;;;18.27;17.65;;;;;;;;;;4990651;28;20026;-56
2021/10/12 03:48:00;;;;;;;16.98;16.63;;;;;;;;;;4976435;28;20097;-56
2021/10/12 03:50:27;;;;;;;16.77;16.48;;;;;;;;;;4986072;28;20507;-56
2021/10/12 03:52:54;;;;;;;17.58;17.10;;;;;;;;;;4988699;28;20126;-56
2021/10/12 03:55:21;;;;;;;17.10;16.80;;;;;;;;;;4991845;28;20042;-56
2021/10/12 03:57:47;;;;;;;18.33;18.02;;;;;;;;;;4989356;28;20057;-56
2021/10/12 04:00:14;;;;;;;20.15;19.52;;;;;;;;;;4981019;28;20051;-55
2021/10/12 04:02:40;;;;;;;16.08;15.70;;;;;;;;;;4984616;28;20395;-56
2021/10/12 04:05:07;;;;;;;16.63;16.42;;;;;;;;;;4990714;28;20122;-56
2021/10/12 04:07:34;;;;;;;18.17;17.83;;;;;;;;;;4991374;28;20482;-55
2021/10/12 04:10:02;;;;;;;18.45;18.05;;;;;;;;;;4989864;28;20081;-56
2021/10/12 04:12:29;;;;;;;18.88;18.52;;;;;;;;;;4990809;28;20477;-55
2021/10/12 04:14:55;;;;;;;18.55;18.17;;;;;;;;;;4988478;28;20042;-55
2021/10/12 04:17:22;;;;;;;16.33;15.95;;;;;;;;;;4995224;28;20472;-55
2021/10/12 04:19:48;;;;;;;15.68;15.48;;;;;;;;;;4986383;28;20378;-55
2021/10/12 04:22:15;;;;;;;19.13;18.65;;;;;;;;;;4987364;28;20053;-55
2021/10/12 04:24:42;;;;;;;20.10;19.42;;;;;;;;;;4990055;28;20058;-56
2021/10/12 04:27:08;;;;;;;18.70;18.02;;;;;;;;;;4988888;28;20615;-56
2021/10/12 04:29:35;;;;;;;17.67;17.25;;;;;;;;;;4984284;28;20047;-55
2021/10/12 04:32:02;;;;;;;17.40;16.88;;;;;;;;;;4985636;28;20089;-55
2021/10/12 04:34:29;;;;;;;19.08;18.77;;;;;;;;;;4990706;28;20120;-56
2021/10/12 04:36:56;;;;;;;20.58;19.98;;;;;;;;;;4989081;28;20054;-56
2021/10/12 04:39:23;;;;;;;19.98;19.45;;;;;;;;;;4981368;28;20057;-56
2021/10/12 04:41:50;;;;;;;19.83;19.25;;;;;;;;;;4981637;28;20062;-56
2021/10/12 04:44:17;;;;;;;20.67;20.00;;;;;;;;;;4985345;28;20101;-56
2021/10/12 04:46:44;;;;;;;17.73;17.15;;;;;;;;;;4988390;28;20069;-56
2021/10/12 04:49:12;;;;;;;16.38;16.08;;;;;;;;;;4990114;28;20505;-56
2021/10/12 04:51:38;;;;;;;18.80;18.38;;;;;;;;;;4989536;28;20113;-56
2021/10/12 04:54:05;;;;;;;19.15;18.67;;;;;;;;;;4989285;28;20073;-56
2021/10/12 04:56:32;;;;;;;18.77;17.98;;;;;;;;;;4986760;28;20430;-55
2021/10/12 04:58:59;;;;;;;15.73;15.43;;;;;;;;;;4983826;28;20073;-56
2021/10/12 05:01:25;;;;;;;19.75;19.05;;;;;;;;;;4982432;28;20071;-56
2021/10/12 05:03:52;;;;;;;21.67;20.77;;;;;;;;;;4975900;28;20398;-56
2021/10/12 05:06:19;;;;;;;17.23;16.80;;;;;;;;;;4988786;28;20057;-56
2021/10/12 05:08:46;;;;;;;18.13;17.73;;;;;;;;;;4989959;28;20042;-56
2021/10/12 05:11:13;;;;;;;20.67;19.75;;;;;;;;;;4990199;28;20034;-55
2021/10/12 05:13:39;;;;;;;20.70;20.10;;;;;;;;;;4986147;28;20055;-56
2021/10/12 05:16:11;;;;;;;19.58;18.98;;;;;;;;;;4983545;28;20054;-55
2021/10/12 05:18:40;;;;;;;26.20;24.60;;;;;;;;;;4988630;28;20395;-56
2021/10/12 05:21:07;;;;;;;25.83;24.35;;;;;;;;;;4989340;28;20609;-54
2021/10/12 05:23:34;;;;;;;23.88;22.83;;;;;;;;;;4988555;28;20089;-56
2021/10/12 05:26:01;;;;;;;31.92;29.83;;;;;;;;;;4987267;28;20137;-56
2021/10/12 05:28:28;;;;;;;27.77;25.77;;;;;;;;;;4983422;28;20046;-56
2021/10/12 05:30:55;;;;;;;29.80;27.80;;;;;;;;;;4989610;28;20038;-56
2021/10/12 05:33:21;;;;;;;26.25;24.75;;;;;;;;;;4988195;28;20038;-56
2021/10/12 05:35:48;;;;;;;25.58;24.50;;;;;;;;;;4981211;28;20081;-56
2021/10/12 05:38:16;;;;;;;21.70;20.65;;;;;;;;;;4980232;28;20049;-56
2021/10/12 05:40:43;;;;;;;21.42;20.20;;;;;;;;;;4986694;28;20050;-57
2021/10/12 05:43:10;;;;;;;21.42;20.92;;;;;;;;;;4990694;28;20683;-56
2021/10/12 05:45:37;;;;;;;20.52;19.95;;;;;;;;;;4978654;28;20498;-56
2021/10/12 05:48:07;;;;;;;21.33;20.58;;;;;;;;;;4989954;28;20092;-55
2021/10/12 05:50:34;;;;;;;19.48;19.05;;;;;;;;;;4993186;28;20073;-56
2021/10/12 05:58:14;;;;;;;20.50;19.90;;;;;;;;;;4991746;28;20128;-56
2021/10/12 06:00:41;;;;;;;17.92;17.45;;;;;;;;;;4986591;28;20622;-56
2021/10/12 06:03:08;;;;;;;20.20;19.67;;;;;;;;;;4992673;28;20057;-57
2021/10/12 06:05:35;;;;;;;19.55;19.08;;;;;;;;;;4992309;28;20038;-56
2021/10/12 06:08:02;;;;;;;19.42;18.52;;;;;;;;;;4990631;28;20063;-57
2021/10/12 06:10:29;;;;;;;21.80;20.90;;;;;;;;;;4992592;28;20047;-56
2021/10/12 06:12:56;;;;;;;20.48;20.08;;;;;;;;;;4993287;28;20588;-56
2021/10/12 06:15:23;;;;;;;17.27;16.88;;;;;;;;;;4987819;28;20054;-56
2021/10/12 06:17:50;;;;;;;19.52;18.55;;;;;;;;;;4980161;28;20569;-56
2021/10/12 06:20:16;;;;;;;17.90;17.15;;;;;;;;;;4988106;28;20080;-56
2021/10/12 06:22:43;;;;;;;18.80;18.15;;;;;;;;;;4976062;28;20042;-56
2021/10/12 06:25:10;;;;;;;17.48;16.98;;;;;;;;;;4993729;28;20066;-56
2021/10/12 06:27:37;;;;;;;22.85;22.15;;;;;;;;;;4985185;28;20046;-56
2021/10/12 06:30:04;;;;;;;37.35;33.75;;;;;;;;;;4983869;28;20487;-56
2021/10/12 06:32:30;;;;;;;29.90;26.73;;;;;;;;;;4985395;28;20046;-56
2021/10/12 06:34:57;;;;;;;27.38;25.88;;;;;;;;;;4992489;28;20049;-56
2021/10/12 06:37:24;;;;;;;23.10;21.90;;;;;;;;;;4990611;28;20035;-56
2021/10/12 06:39:51;;;;;;;21.50;20.50;;;;;;;;;;4989984;28;20076;-56
2021/10/12 06:42:17;;;;;;;21.25;20.35;;;;;;;;;;4987286;28;20078;-56
2021/10/12 06:44:44;;;;;;;21.10;20.38;;;;;;;;;;4984429;28;20119;-56
2021/10/12 06:47:11;;;;;;;21.45;20.75;;;;;;;;;;4993350;28;20034;-56
2021/10/12 06:49:38;;;;;;;23.10;21.90;;;;;;;;;;4987215;28;20547;-56
2021/10/12 06:52:05;;;;;;;21.52;20.15;;;;;;;;;;4988018;28;20384;-57
2021/10/12 06:54:31;;;;;;;23.02;22.08;;;;;;;;;;4991876;28;20125;-56
2021/10/12 06:57:00;;;;;;;23.30;22.25;;;;;;;;;;4980419;28;20038;-56
2021/10/12 06:59:27;;;;;;;21.05;20.30;;;;;;;;;;4978012;28;20051;-56
2021/10/12 07:01:53;;;;;;;22.50;21.35;;;;;;;;;;4984429;28;20552;-56
2021/10/12 07:04:21;;;;;;;19.80;19.30;;;;;;;;;;4985264;28;20089;-56
2021/10/12 07:06:48;;;;;;;21.42;20.35;;;;;;;;;;4992818;28;20420;-56
2021/10/12 07:09:16;;;;;;;21.17;20.48;;;;;;;;;;4982954;28;20126;-56
2021/10/12 07:11:43;;;;;;;19.00;18.20;;;;;;;;;;4990337;28;20894;-56
2021/10/12 07:14:11;;;;;;;19.63;18.40;;;;;;;;;;4988825;28;20031;-56
2021/10/12 07:16:38;;;;;;;18.40;18.10;;;;;;;;;;4990136;28;20069;-56
2021/10/12 07:19:05;;;;;;;19.13;18.45;;;;;;;;;;4988296;28;20042;-56
2021/10/12 07:21:32;;;;;;;17.50;17.02;;;;;;;;;;4991719;28;20081;-56
2021/10/12 07:23:59;;;;;;;16.95;16.55;;;;;;;;;;4985092;28;20683;-56
2021/10/12 07:26:26;;;;;;;17.35;16.95;;;;;;;;;;4984479;28;20042;-56
2021/10/12 07:28:53;;;;;;;17.30;16.85;;;;;;;;;;4991679;28;20465;-56
2021/10/12 07:31:20;;;;;;;15.80;15.45;;;;;;;;;;4987835;28;20522;-56
2021/10/12 07:33:47;;;;;;;16.55;15.95;;;;;;;;;;4978605;28;20051;-56
2021/10/12 07:36:14;;;;;;;17.02;16.20;;;;;;;;;;4992375;28;20046;-56
2021/10/12 07:38:41;;;;;;;17.42;16.73;;;;;;;;;;4991469;28;20069;-56
2021/10/12 07:41:25;;;;;;;16.35;15.95;;;;;;;;;;4991342;28;20711;-57
2021/10/12 07:43:51;;;;;;;8.75;8.25;;;;;;;;;;4989596;28;20038;-56
2021/10/12 07:46:18;;;;;;;15.07;14.75;;;;;;;;;;4990214;28;20079;-56
2021/10/12 07:48:45;;;;;;;12.68;12.20;;;;;;;;;;4989509;28;20399;-56
2021/10/12 07:51:31;;;;;;;8.27;7.97;;;;;;;;;;4989664;28;20406;-56
2021/10/12 07:54:01;;;;;;;7.32;6.93;;;;;;;;;;4991319;28;20502;-56
2021/10/12 07:56:36;;;;;;;16.58;15.98;;;;;;;;;;4984787;28;20495;-56
2021/10/12 07:59:04;;;;;;;12.32;11.40;;;;;;;;;;4976044;28;20069;-56
2021/10/12 08:01:31;;;;;;;8.48;8.20;;;;;;;;;;4990871;28;20069;-55
2021/10/12 08:04:00;;;;;;;7.57;7.13;;;;;;;;;;4983457;28;20048;-56
2021/10/12 08:06:27;;;;;;;4.00;3.90;;;;;;;;;;4990155;28;20046;-55
2021/10/12 08:08:54;;;;;;;3.92;3.30;;;;;;;;;;4988594;28;20058;-56
2021/10/12 08:11:25;;;;;;;5.03;4.80;;;;;;;;;;4990230;28;20063;-56
2021/10/12 08:13:57;;;;;;;5.45;5.35;;;;;;;;;;4989657;28;20037;-56
2021/10/12 08:16:31;;;;;;;4.75;4.45;;;;;;;;;;4985486;28;20046;-56
2021/10/12 08:18:57;;;;;;;;;;;;;;;;;;4986375;28;20042;-56
2021/10/12 08:21:25;;;;;;;7.75;7.03;;;;;;;;;;4987640;28;20386;-55
2021/10/12 08:23:52;;;;;;;6.40;6.10;;;;;;;;;;4985952;28;20093;-56
2021/10/12 08:26:20;;;;;;;7.63;7.13;;;;;;;;;;4991359;28;20046;-56
2021/10/12 08:28:46;;;;;;;7.13;5.25;;;;;;;;;;4987661;28;20034;-56
2021/10/12 08:31:13;;;;;;;5.05;4.85;;;;;;;;;;4982355;28;20506;-55
2021/10/12 08:33:41;;;;;;;4.53;4.32;;;;;;;;;;4985913;28;20043;-55
2021/10/12 08:36:07;;;;;;;5.20;4.80;;;;;;;;;;4989749;28;20093;-56
2021/10/12 08:38:56;;;;;;;5.70;5.05;;;;;;;;;;4989764;28;20046;-56
2021/10/12 08:41:25;;;;;;;5.18;4.88;;;;;;;;;;4988333;28;20533;-56
2021/10/12 08:43:54;;;;;;;4.25;4.07;;;;;;;;;;4990842;28;20045;-56
2021/10/12 08:46:26;;;;;;;3.92;3.72;;;;;;;;;;4987366;28;20481;-56
2021/10/12 08:48:54;;;;;;;4.28;4.07;;;;;;;;;;4975290;28;20101;-56
2021/10/12 08:51:21;;;;;;;3.47;3.25;;;;;;;;;;4990370;28;20426;-56
2021/10/12 08:53:47;;;;;;;4.38;4.13;;;;;;;;;;4988821;28;20042;-56
2021/10/12 08:56:14;;;;;;;10.10;4.35;;;;;;;;;;4977740;28;20073;-56
2021/10/12 08:58:41;;;;;;;4.95;4.70;;;;;;;;;;4985917;28;20073;-54
2021/10/12 09:01:11;;;;;;;4.18;3.95;;;;;;;;;;4986897;28;20046;-56
2021/10/12 09:03:49;;;;;;;4.03;3.75;;;;;;;;;;4989098;28;20080;-56
2021/10/12 09:06:44;;;;;;;3.58;3.28;;;;;;;;;;4988613;28;20101;-56
2021/10/12 09:09:17;;;;;;;3.85;3.65;;;;;;;;;;4989044;28;20054;-55
2021/10/12 09:11:44;;;;;;;3.10;3.00;;;;;;;;;;4989557;28;20039;-56
2021/10/12 09:14:13;;;;;;;2.90;2.70;;;;;;;;;;4975464;28;20034;-56
2021/10/12 09:16:41;;;;;;;2.00;1.90;;;;;;;;;;4977400;28;20419;-55
2021/10/12 09:19:09;;;;;;;2.95;2.70;;;;;;;;;;4982599;28;20030;-55
2021/10/12 09:21:44;;;;;;;3.08;2.97;;;;;;;;;;4974265;28;20070;-56
2021/10/12 09:24:21;;;;;;;3.92;2.60;;;;;;;;;;4984274;28;20118;-56
2021/10/12 09:26:50;;;;;;;3.70;3.45;;;;;;;;;;4987391;28;20030;-56
2021/10/12 09:31:50;;;;;;;;;;;;;;;;;;4984688;28;20089;-56
2021/10/12 09:34:18;;;;;;;4.95;4.63;;;;;;;;;;4971945;28;19922;-56
2021/10/12 09:36:46;;;;;;;3.65;3.45;;;;;;;;;;4989288;28;20050;-56
2021/10/12 09:39:15;;;;;;;4.95;4.55;;;;;;;;;;4988308;28;20034;-56
2021/10/12 09:41:42;;;;;;;5.38;4.95;;;;;;;;;;4987772;28;20137;-56
2021/10/12 09:44:14;;;;;;;6.50;5.93;;;;;;;;;;4989139;28;20114;-57
2021/10/12 09:46:42;;;;;;;3.35;3.10;;;;;;;;;;4989093;28;20483;-56
2021/10/12 09:49:10;;;;;;;6.72;5.97;;;;;;;;;;4988381;28;20698;-56
2021/10/12 09:51:40;;;;;;;7.68;4.10;;;;;;;;;;4984021;28;20105;-56
2021/10/12 09:54:19;;;;;;;7.75;3.15;;;;;;;;;;4982975;28;20509;-56
2021/10/12 09:56:46;;;;;;;2.70;2.50;;;;;;;;;;4984736;28;20073;-56
2021/10/12 09:59:13;;;;;;;4.10;2.60;;;;;;;;;;4982051;28;20050;-56
2021/10/12 10:01:40;;;;;;;11.35;2.67;;;;;;;;;;4987287;28;20366;-56
2021/10/12 10:04:10;;;;;;;3.08;2.78;;;;;;;;;;4982695;28;20042;-57
2021/10/12 10:06:37;;;;;;;2.65;2.45;;;;;;;;;;4982228;28;20039;-56
2021/10/12 10:09:04;;;;;;;9.52;3.88;;;;;;;;;;4989453;28;20049;-56
2021/10/12 10:11:34;;;;;;;5.10;2.83;;;;;;;;;;4985724;28;20515;-56
2021/10/12 10:14:01;;;;;;;4.07;3.58;;;;;;;;;;4989317;28;20046;-56
2021/10/12 10:16:29;;;;;;;2.90;2.70;;;;;;;;;;4988903;28;20125;-56
2021/10/12 10:18:56;;;;;;;3.13;3.03;;;;;;;;;;4989388;28;20739;-56
2021/10/12 10:21:23;;;;;;;3.95;1.23;;;;;;;;;;4989694;28;20042;-56
2021/10/12 10:24:18;;;;;;;1.00;1.00;;;;;;;;;;4994604;28;20072;-57
2021/10/12 10:26:43;;;;;;;1.10;1.00;;;;;;;;;;4989807;28;20066;-56
2021/10/12 10:29:17;;;;;;;0.90;0.90;;;;;;;;;;4991788;28;20467;-56
2021/10/12 10:31:46;;;;;;;1.13;0.90;;;;;;;;;;4979749;28;20042;-56
2021/10/12 10:34:28;;;;;;;1.00;1.00;;;;;;;;;;4985170;28;20034;-56
2021/10/12 10:37:28;;;;;;;1.00;1.00;;;;;;;;;;4975529;28;20113;-56
2021/10/12 10:39:57;;;;;;;1.00;1.00;;;;;;;;;;5000675;28;20121;-56
2021/10/12 10:42:26;;;;;;;1.58;1.48;;;;;;;;;;4992737;28;20047;-56
2021/10/12 10:44:54;;;;;;;1.20;1.00;;;;;;;;;;4994212;28;20074;-55
2021/10/12 10:47:40;;;;;;;0.90;0.90;;;;;;;;;;4990621;28;20058;-56
2021/10/12 10:50:16;;;;;;;1.00;1.00;;;;;;;;;;4981509;28;20038;-56
2021/10/12 10:52:47;;;;;;;1.10;1.10;;;;;;;;;;4980511;28;20047;-56
2021/10/12 10:55:24;;;;;;;1.83;1.05;;;;;;;;;;4985312;28;20038;-55
2021/10/12 10:58:02;;;;;;;1.55;1.45;;;;;;;;;;4991351;28;20073;-56
2021/10/12 11:00:42;;;;;;;2.53;2.42;;;;;;;;;;4995846;28;20104;-55
2021/10/12 11:03:30;;;;;;;2.88;2.50;;;;;;;;;;4988877;28;20045;-55
2021/10/12 11:05:57;;;;;;;1.52;0.90;;;;;;;;;;4991177;28;20058;-56
2021/10/12 11:08:27;;;;;;;2.53;2.42;;;;;;;;;;4986733;28;20034;-56
2021/10/12 11:11:01;;;;;;;2.97;1.20;;;;;;;;;;4988220;28;20126;-56
2021/10/12 11:13:41;;;;;;;2.47;1.10;;;;;;;;;;4986304;28;20085;-56
2021/10/12 11:16:09;;;;;;;1.00;1.00;;;;;;;;;;4986124;28;20047;-55
2021/10/12 11:18:36;;;;;;;1.48;1.02;;;;;;;;;;4979249;28;20038;-55
2021/10/12 11:21:04;;;;;;;1.70;1.05;;;;;;;;;;4989797;28;20081;-56
2021/10/12 11:23:32;;;;;;;1.10;1.00;;;;;;;;;;4991578;28;20153;-56
2021/10/12 11:26:09;;;;;;;4.10;1.00;;;;;;;;;;4983702;28;20097;-56
2021/10/12 11:28:37;;;;;;;0.80;0.80;;;;;;;;;;4983681;28;20065;-56
2021/10/12 11:31:14;;;;;;;0.75;0.75;;;;;;;;;;4988176;28;20483;-56
2021/10/12 11:33:43;;;;;;;0.80;0.80;;;;;;;;;;4985591;28;20039;-56
2021/10/12 11:36:11;;;;;;;1.00;1.00;;;;;;;;;;4986026;28;20057;-57
2021/10/12 11:38:41;;;;;;;0.90;0.90;;;;;;;;;;4990164;28;20450;-56
2021/10/12 11:41:15;;;;;;;0.70;0.70;;;;;;;;;;4986145;28;20046;-56
2021/10/12 11:43:43;;;;;;;0.70;0.70;;;;;;;;;;4989807;28;20063;-56
2021/10/12 11:46:10;;;;;;;0.70;0.70;;;;;;;;;;4986532;28;20039;-56
2021/10/12 11:48:37;;;;;;;0.82;0.70;;;;;;;;;;4983669;28;20095;-56
2021/10/12 11:51:18;;;;;;;0.70;0.70;;;;;;;;;;5011936;28;20049;-56
2021/10/12 11:53:46;;;;;;;0.70;0.70;;;;;;;;;;4983867;28;20364;-56
2021/10/12 11:56:14;;;;;;;0.70;0.70;;;;;;;;;;4983159;28;20037;-57
2021/10/12 11:58:41;;;;;;;0.68;0.68;;;;;;;;;;4989346;28;20073;-57
2021/10/12 12:01:09;;;;;;;0.60;0.60;;;;;;;;;;4989615;28;20045;-57
2021/10/12 12:03:38;;;;;;;1.05;0.70;;;;;;;;;;4980901;28;20035;-57
2021/10/12 12:06:05;;;;;;;0.60;0.60;;;;;;;;;;4982932;28;20118;-55
2021/10/12 12:08:32;;;;;;;0.60;0.60;;;;;;;;;;4990635;28;20038;-56
2021/10/12 12:10:59;;;;;;;0.60;0.60;;;;;;;;;;4989869;28;20447;-57
2021/10/12 12:13:27;;;;;;;0.60;0.60;;;;;;;;;;4990599;28;20039;-56
2021/10/12 12:15:54;;;;;;;3.00;0.70;;;;;;;;;;4981266;28;20480;-57
2021/10/12 12:18:23;;;;;;;0.60;0.60;;;;;;;;;;4984031;28;20042;-56
2021/10/12 12:20:50;;;;;;;0.70;0.70;;;;;;;;;;4984969;28;20058;-56
2021/10/12 12:23:29;;;;;;;0.70;0.70;;;;;;;;;;4986067;28;20118;-57
2021/10/12 12:25:59;;;;;;;1.05;0.70;;;;;;;;;;4989854;28;20034;-56
2021/10/12 12:28:26;;;;;;;0.80;0.80;;;;;;;;;;4988489;28;20035;-56
2021/10/12 12:30:53;;;;;;;0.63;0.63;;;;;;;;;;4988533;28;20065;-56
2021/10/12 12:33:20;;;;;;;0.70;0.70;;;;;;;;;;4986000;28;20050;-56
2021/10/12 12:35:47;;;;;;;0.70;0.70;;;;;;;;;;4986144;28;20035;-57
2021/10/12 12:38:23;;;;;;;0.60;0.60;;;;;;;;;;4986962;28;20580;-57
2021/10/12 12:40:51;;;;;;;0.60;0.60;;;;;;;;;;4996088;28;20053;-57
2021/10/12 12:43:29;;;;;;;0.60;0.60;;;;;;;;;;4997122;28;20533;-57
2021/10/12 12:46:06;;;;;;;0.60;0.60;;;;;;;;;;4987687;28;20046;-56
2021/10/12 12:48:33;;;;;;;0.93;0.70;;;;;;;;;;4984798;28;20046;-56
2021/10/12 12:51:00;;;;;;;0.70;0.70;;;;;;;;;;4975433;28;20035;-56
2021/10/12 12:53:47;;;;;;;0.70;0.70;;;;;;;;;;4989714;28;20359;-56
2021/10/12 12:56:19;;;;;;;0.80;0.80;;;;;;;;;;4982909;28;20406;-56
2021/10/12 12:58:47;;;;;;;1.85;0.70;;;;;;;;;;4973215;28;20074;-57
2021/10/12 13:01:15;;;;;;;0.80;0.80;;;;;;;;;;4981097;28;20573;-56
2021/10/12 13:03:42;;;;;;;2.85;0.75;;;;;;;;;;4982717;28;20503;-57
2021/10/12 13:06:09;;;;;;;1.20;0.80;;;;;;;;;;4990139;28;20039;-56
2021/10/12 13:08:36;;;;;;;0.95;0.95;;;;;;;;;;4987767;28;20057;-56
2021/10/12 13:11:07;;;;;;;0.60;0.60;;;;;;;;;;4989742;28;20080;-56
2021/10/12 13:13:37;;;;;;;0.70;0.70;;;;;;;;;;4978356;28;20046;-56
2021/10/12 13:16:04;;;;;;;0.93;0.85;;;;;;;;;;4982922;28;20723;-56
2021/10/12 13:18:31;;;;;;;1.45;0.82;;;;;;;;;;4977259;28;20041;-57
2021/10/12 13:20:58;;;;;;;1.10;0.90;;;;;;;;;;4989689;28;20497;-57
2021/10/12 13:23:24;;;;;;;0.70;0.70;;;;;;;;;;4989912;28;20965;-57
2021/10/12 13:25:51;;;;;;;2.38;0.70;;;;;;;;;;4976485;28;20074;-57
2021/10/12 13:28:18;;;;;;;1.65;0.70;;;;;;;;;;4983288;28;20462;-55
2021/10/12 13:30:45;;;;;;;0.70;0.70;;;;;;;;;;4972570;28;20042;-56
2021/10/12 13:33:11;;;;;;;0.80;0.80;;;;;;;;;;4990395;28;20061;-57
2021/10/12 13:35:38;;;;;;;0.70;0.70;;;;;;;;;;4982063;28;20074;-57
2021/10/12 13:38:05;;;;;;;0.85;0.85;;;;;;;;;;4978821;28;20050;-57
2021/10/12 13:40:33;;;;;;;1.42;0.90;;;;;;;;;;4983055;28;20046;-57
2021/10/12 13:43:00;;;;;;;0.95;0.70;;;;;;;;;;4974966;28;20624;-57
2021/10/12 13:45:27;;;;;;;0.70;0.70;;;;;;;;;;4979343;28;20047;-57
2021/10/12 13:47:54;;;;;;;1.30;0.70;;;;;;;;;;4979863;28;20418;-57
2021/10/12 13:50:20;;;;;;;2.80;0.98;;;;;;;;;;4990035;28;20678;-56
2021/10/12 13:52:47;;;;;;;1.88;0.73;;;;;;;;;;4986236;28;20039;-57
2021/10/12 13:55:13;;;;;;;0.70;0.70;;;;;;;;;;4988660;28;20096;-57
2021/10/12 13:57:40;;;;;;;1.50;0.70;;;;;;;;;;4979748;28;20042;-56
2021/10/12 14:00:08;;;;;;;0.73;0.73;;;;;;;;;;4981735;28;20125;-56
2021/10/12 14:02:37;;;;;;;0.70;0.70;;;;;;;;;;4990091;28;20067;-57
2021/10/12 14:05:04;;;;;;;0.60;0.60;;;;;;;;;;4987544;28;20051;-56
2021/10/12 14:07:31;;;;;;;0.75;0.75;;;;;;;;;;4988313;28;20045;-57
2021/10/12 14:09:58;;;;;;;1.05;0.70;;;;;;;;;;4992816;28;20161;-57
2021/10/12 14:12:25;;;;;;;0.70;0.70;;;;;;;;;;4993647;28;20539;-56
2021/10/12 14:14:52;;;;;;;0.70;0.70;;;;;;;;;;4993512;28;20034;-57
2021/10/12 14:17:21;;;;;;;0.70;0.70;;;;;;;;;;4991089;28;20475;-56
2021/10/12 14:20:08;;;;;;;0.70;0.70;;;;;;;;;;4986811;28;20424;-56
2021/10/12 14:22:35;;;;;;;1.70;1.13;;;;;;;;;;4987741;28;20042;-56
2021/10/12 14:25:02;;;;;;;0.70;0.70;;;;;;;;;;4989450;28;20940;-56
2021/10/12 14:27:29;;;;;;;0.98;0.70;;;;;;;;;;4978531;28;20035;-57
2021/10/12 14:30:02;;;;;;;0.70;0.70;;;;;;;;;;4992066;28;20042;-57
2021/10/12 14:32:28;;;;;;;;;;;;;;;;;;4994187;28;20038;-56
2021/10/12 14:34:56;;;;;;;0.70;0.70;;;;;;;;;;4980974;28;20394;-56
2021/10/12 14:37:22;;;;;;;3.28;1.40;;;;;;;;;;4987567;28;20062;-56
2021/10/12 14:39:49;;;;;;;0.80;0.80;;;;;;;;;;4977592;28;20434;-57
2021/10/12 14:42:15;;;;;;;0.70;0.70;;;;;;;;;;4991503;28;20074;-57
2021/10/12 14:44:42;;;;;;;0.70;0.70;;;;;;;;;;4992174;28;20077;-57
2021/10/12 14:47:09;;;;;;;3.05;0.77;;;;;;;;;;4975275;28;20026;-56